createdAt,value
2023-02-27T00:03:34.636Z,0.00
2023-02-27T00:08:34.691Z,0.00
2023-02-27T00:13:34.467Z,0.00
2023-02-27T00:18:34.419Z,0.00
2023-02-27T00:23:34.389Z,0.00
2023-02-27T00:28:34.317Z,0.00
2023-02-27T00:33:34.256Z,0.00
2023-02-27T00:38:34.156Z,0.00
2023-02-27T00:43:34.130Z,0.00
2023-02-27T00:48:34.066Z,0.00
2023-02-27T00:53:33.998Z,0.00
2023-02-27T00:58:33.925Z,0.00
2023-02-27T01:03:33.917Z,0.00
2023-02-27T01:08:33.842Z,0.00
2023-02-27T01:13:33.760Z,0.00
2023-02-27T01:18:33.732Z,0.00
2023-02-27T01:23:33.679Z,0.00
2023-02-27T01:28:33.630Z,0.00
2023-02-27T01:33:33.576Z,0.00
2023-02-27T01:38:33.498Z,0.00
2023-02-27T01:43:33.394Z,0.00
2023-02-27T01:48:33.489Z,0.00
2023-02-27T01:53:33.301Z,0.00
2023-02-27T01:58:33.230Z,0.00
2023-02-27T02:03:33.165Z,0.00
2023-02-27T02:08:33.112Z,0.00
2023-02-27T02:13:33.084Z,0.00
2023-02-27T02:18:32.978Z,0.00
2023-02-27T02:23:32.908Z,0.00
2023-02-27T02:28:32.870Z,0.00
2023-02-27T02:33:32.813Z,0.00
2023-02-27T02:38:32.756Z,0.00
2023-02-27T02:43:32.686Z,0.00
2023-02-27T02:48:32.648Z,0.00
2023-02-27T02:53:37.048Z,0.00
2023-02-27T02:58:32.529Z,0.00
2023-02-27T03:03:32.455Z,0.00
2023-02-27T03:08:32.378Z,0.00
2023-02-27T03:13:32.325Z,0.00
2023-02-27T03:18:32.286Z,0.00
2023-02-27T03:23:32.252Z,0.00
2023-02-27T03:28:32.168Z,0.00
2023-02-27T03:33:32.088Z,0.00
2023-02-27T03:38:32.023Z,0.00
2023-02-27T03:43:32.145Z,0.00
2023-02-27T03:48:31.933Z,0.00
2023-02-27T03:53:31.817Z,0.00
2023-02-27T03:58:31.773Z,0.00
2023-02-27T04:03:31.701Z,0.00
2023-02-27T04:08:31.668Z,0.00
2023-02-27T04:13:31.613Z,0.00
2023-02-27T04:18:31.554Z,0.00
2023-02-27T04:23:31.463Z,0.00
2023-02-27T04:28:31.405Z,0.00
2023-02-27T04:33:31.381Z,0.00
2023-02-27T04:38:31.265Z,0.00
2023-02-27T04:43:31.267Z,0.00
2023-02-27T04:48:31.178Z,0.00
2023-02-27T04:53:31.104Z,0.00
2023-02-27T04:58:31.058Z,0.00
2023-02-27T05:03:31.031Z,0.00
2023-02-27T05:08:30.925Z,0.00
2023-02-27T05:13:30.855Z,0.00
2023-02-27T05:18:30.776Z,0.00
2023-02-27T05:23:30.737Z,0.00
2023-02-27T05:28:30.690Z,0.00
2023-02-27T05:33:30.666Z,3.00
2023-02-27T05:38:30.555Z,11.00
2023-02-27T05:43:30.485Z,28.00
2023-02-27T05:48:30.456Z,65.00
2023-02-27T05:53:30.403Z,130.00
2023-02-27T05:58:30.333Z,218.00
2023-02-27T06:03:30.364Z,325.00
2023-02-27T06:08:30.216Z,502.00
2023-02-27T06:13:30.109Z,705.00
2023-02-27T06:18:30.096Z,939.00
2023-02-27T06:23:30.015Z,1183.00
2023-02-27T06:28:29.952Z,1430.00
2023-02-27T06:33:29.876Z,1732.00
2023-02-27T06:38:29.867Z,2040.00
2023-02-27T06:43:29.742Z,2267.00
2023-02-27T06:48:29.690Z,2562.00
2023-02-27T06:53:29.628Z,2784.00
2023-02-27T06:58:29.605Z,2931.00
2023-02-27T07:03:29.530Z,3022.00
2023-02-27T07:08:29.461Z,3100.00
2023-02-27T07:13:29.388Z,3083.00
2023-02-27T07:18:29.355Z,2967.00
2023-02-27T07:23:29.269Z,3139.00
2023-02-27T07:28:29.271Z,3366.00
2023-02-27T07:33:29.119Z,3981.00
2023-02-27T07:38:29.063Z,4571.00
2023-02-27T07:43:29.029Z,5222.00
2023-02-27T07:48:28.960Z,5654.00
2023-02-27T07:53:28.883Z,6035.00
2023-02-27T07:58:28.882Z,7308.00
2023-02-27T08:03:28.855Z,8761.00
2023-02-27T08:08:28.756Z,8818.00
2023-02-27T08:13:59.148Z,8695.00
2023-02-27T08:18:29.614Z,8229.00
2023-02-27T08:23:28.554Z,7896.00
2023-02-27T08:28:28.470Z,8200.00
2023-02-27T08:33:28.389Z,8564.00
2023-02-27T08:38:28.376Z,10995.00
2023-02-27T08:43:28.337Z,11699.00
2023-02-27T08:48:28.226Z,11221.00
2023-02-27T08:53:28.172Z,11055.00
2023-02-27T08:58:28.136Z,12930.00
2023-02-27T09:03:28.057Z,11203.00
2023-02-27T09:08:27.984Z,11965.00
2023-02-27T09:13:27.940Z,12624.00
2023-02-27T09:18:27.877Z,10641.00
2023-02-27T09:23:27.789Z,8058.00
2023-02-27T09:28:27.727Z,10459.00
2023-02-27T09:33:29.257Z,8526.00
2023-02-27T09:38:27.610Z,7031.00
2023-02-27T09:43:27.571Z,8160.00
2023-02-27T09:48:27.515Z,10071.00
2023-02-27T09:53:27.453Z,10582.00
2023-02-27T09:58:27.400Z,12079.00
2023-02-27T10:03:27.404Z,16779.00
2023-02-27T10:08:27.269Z,15069.00
2023-02-27T10:13:27.227Z,11650.00
2023-02-27T10:18:30.678Z,12889.00
2023-02-27T10:23:27.187Z,11120.00
2023-02-27T10:28:27.025Z,10430.00
2023-02-27T10:33:28.371Z,11622.00
2023-02-27T10:38:26.929Z,11443.00
2023-02-27T10:43:26.854Z,10151.00
2023-02-27T10:48:26.795Z,6371.00
2023-02-27T10:53:26.708Z,5621.00
2023-02-27T10:58:27.553Z,7003.00
2023-02-27T11:03:26.580Z,7124.00
2023-02-27T11:08:26.523Z,7555.00
2023-02-27T11:13:26.451Z,9241.00
2023-02-27T11:18:26.392Z,11018.00
2023-02-27T11:23:26.354Z,15016.00
2023-02-27T11:28:26.282Z,10845.00
2023-02-27T11:33:26.249Z,11852.00
2023-02-27T11:38:26.144Z,10163.00
2023-02-27T11:43:26.069Z,18700.00
2023-02-27T11:48:26.017Z,13433.00
2023-02-27T11:53:25.981Z,12265.00
2023-02-27T11:58:25.901Z,13493.00
2023-02-27T12:03:25.846Z,11751.00
2023-02-27T12:08:25.757Z,13373.00
2023-02-27T12:13:25.722Z,16849.00
2023-02-27T12:18:25.620Z,13903.00
2023-02-27T12:23:25.568Z,13110.00
2023-02-27T12:28:25.517Z,12247.00
2023-02-27T12:33:25.488Z,14821.00
2023-02-27T12:38:25.377Z,12067.00
2023-02-27T12:43:25.321Z,11384.00
2023-02-27T12:48:25.283Z,12310.00
2023-02-27T12:53:25.238Z,12529.00
2023-02-27T12:58:25.156Z,10923.00
2023-02-27T13:03:25.096Z,10037.00
2023-02-27T13:08:25.051Z,10569.00
2023-02-27T13:13:24.966Z,10594.00
2023-02-27T13:18:24.897Z,9838.00
2023-02-27T13:23:24.867Z,14498.00
2023-02-27T13:28:24.779Z,12440.00
2023-02-27T13:33:25.057Z,10775.00
2023-02-27T13:38:24.653Z,7708.00
2023-02-27T13:43:24.624Z,4838.00
2023-02-27T13:48:24.509Z,5712.00
2023-02-27T13:53:24.653Z,7092.00
2023-02-27T13:58:24.462Z,8854.00
2023-02-27T14:03:24.355Z,8645.00
2023-02-27T14:08:24.292Z,3847.00
2023-02-27T14:13:24.243Z,4735.00
2023-02-27T14:18:33.573Z,6490.00
2023-02-27T14:23:25.110Z,7599.00
2023-02-27T14:28:24.037Z,8209.00
2023-02-27T14:33:37.605Z,9269.00
2023-02-27T14:38:24.928Z,6653.00
2023-02-27T14:43:23.898Z,6215.00
2023-02-27T14:48:23.839Z,5910.00
2023-02-27T14:53:23.759Z,6560.00
2023-02-27T14:58:23.670Z,4384.00
2023-02-27T15:03:23.618Z,4563.00
2023-02-27T15:08:23.565Z,4845.00
2023-02-27T15:13:23.470Z,5094.00
2023-02-27T15:18:23.446Z,4889.00
2023-02-27T15:23:23.423Z,7096.00
2023-02-27T15:28:23.280Z,4555.00
2023-02-27T15:33:23.246Z,3043.00
2023-02-27T15:38:23.197Z,3076.00
2023-02-27T15:43:23.116Z,3157.00
2023-02-27T15:48:23.059Z,3049.00
2023-02-27T15:53:23.002Z,2796.00
2023-02-27T15:58:22.966Z,2659.00
2023-02-27T16:03:22.875Z,2597.00
2023-02-27T16:08:22.839Z,2374.00
2023-02-27T16:13:22.756Z,2049.00
2023-02-27T16:18:22.712Z,1766.00
2023-02-27T16:23:22.661Z,1459.00
2023-02-27T16:28:22.581Z,1165.00
2023-02-27T16:33:22.526Z,918.00
2023-02-27T16:38:22.434Z,699.00
2023-02-27T16:43:22.355Z,488.00
2023-02-27T16:48:22.346Z,314.00
2023-02-27T16:53:22.257Z,181.00
2023-02-27T16:58:22.180Z,93.00
2023-02-27T17:03:22.130Z,48.00
2023-02-27T17:08:22.090Z,21.00
2023-02-27T17:13:21.994Z,8.00
2023-02-27T17:18:21.929Z,3.00
2023-02-27T17:23:21.859Z,1.00
2023-02-27T17:28:21.818Z,0.00
2023-02-27T17:33:21.733Z,0.00
2023-02-27T17:38:21.704Z,0.00
2023-02-27T17:43:21.614Z,0.00
2023-02-27T17:48:21.584Z,0.00
2023-02-27T17:53:21.515Z,0.00
2023-02-27T17:58:21.434Z,0.00
2023-02-27T18:03:21.377Z,0.00
2023-02-27T18:08:21.309Z,0.00
2023-02-27T18:13:21.327Z,0.00
2023-02-27T18:18:21.195Z,0.00
2023-02-27T18:23:21.132Z,0.00
2023-02-27T18:28:21.160Z,0.00
2023-02-27T18:33:21.026Z,0.00
2023-02-27T18:38:21.287Z,0.00
2023-02-27T18:43:20.978Z,0.00
2023-02-27T18:48:20.898Z,0.00
2023-02-27T18:53:20.813Z,0.00
2023-02-27T18:58:20.763Z,0.00
2023-02-27T19:03:21.132Z,0.00
2023-02-27T19:08:20.650Z,0.00
2023-02-27T19:13:20.582Z,0.00
2023-02-27T19:18:21.483Z,0.00
2023-02-27T19:23:20.466Z,0.00
2023-02-27T19:28:20.432Z,0.00
2023-02-27T19:33:20.358Z,0.00
2023-02-27T19:38:20.272Z,0.00
2023-02-27T19:43:20.571Z,0.00
2023-02-27T19:48:20.234Z,0.00
2023-02-27T19:53:20.074Z,0.00
2023-02-27T19:58:20.124Z,0.00
2023-02-27T20:03:19.969Z,0.00
2023-02-27T20:08:19.872Z,0.00
2023-02-27T20:13:19.812Z,0.00
2023-02-27T20:18:19.754Z,0.00
2023-02-27T20:23:19.724Z,0.00
2023-02-27T20:28:19.658Z,0.00
2023-02-27T20:33:19.565Z,0.00
2023-02-27T20:38:19.498Z,0.00
2023-02-27T20:43:19.463Z,0.00
2023-02-27T20:48:19.384Z,0.00
2023-02-27T20:53:19.348Z,0.00
2023-02-27T20:58:19.259Z,0.00
2023-02-27T21:03:19.226Z,0.00
2023-02-27T21:08:19.178Z,0.00
2023-02-27T21:13:19.133Z,0.00
2023-02-27T21:18:19.056Z,0.00
2023-02-27T21:23:18.988Z,0.00
2023-02-27T21:28:18.918Z,0.00
2023-02-27T21:33:18.851Z,0.00
2023-02-27T21:38:19.740Z,0.00
2023-02-27T21:43:19.721Z,0.00
2023-02-27T21:48:18.660Z,0.00
2023-02-27T21:53:18.606Z,0.00
2023-02-27T21:58:18.535Z,0.00
2023-02-27T22:03:18.496Z,0.00
2023-02-27T22:08:18.454Z,0.00
2023-02-27T22:13:18.379Z,0.00
2023-02-27T22:18:18.303Z,0.00
2023-02-27T22:23:18.237Z,0.00
2023-02-27T22:28:18.164Z,0.00
2023-02-27T22:33:18.126Z,0.00
2023-02-27T22:38:18.133Z,0.00
2023-02-27T22:43:18.008Z,0.00
2023-02-27T22:48:17.980Z,0.00
2023-02-27T22:53:17.941Z,0.00
2023-02-27T22:58:17.823Z,0.00
2023-02-27T23:03:17.761Z,0.00
2023-02-27T23:08:17.695Z,0.00
2023-02-27T23:13:17.646Z,0.00
2023-02-27T23:18:17.588Z,0.00
2023-02-27T23:23:17.498Z,0.00
2023-02-27T23:28:17.529Z,0.00
2023-02-27T23:33:17.429Z,0.00
2023-02-27T23:38:17.384Z,0.00
2023-02-27T23:43:17.322Z,0.00
2023-02-27T23:48:17.210Z,0.00
2023-02-27T23:53:17.210Z,0.00
2023-02-27T23:58:18.014Z,0.00
